Latest Coastal Weather Observations for Taree Airport

IDN60701

Issued at 7:51 am EDT Sunday 21 December 2014 (issued every 10 minutes, with the page automatically refreshed every 10 minutes)

About coastal observations | Map of coastal stations | Coastal observations for NSW | Marine services | Other Formats
Station Details ID: 060141 Name: TAREE AIRPORT AWS Lat: -31.89 Lon: 152.51 Height: 8.0 m
Data from the previous 72 hours. | See also: Recent months at Taree Airport
Date/Time
EDT
Temp

°C
Wind Pressure Rain
since 9am
mm
Weather Cloud Vis
km
Sea
Height
m
Swell
Dir
 
Speed
knots
Gust
knots
hPa Trend Height
m
Period
s
Dir
21/07:30am 20.8 CALM 0 4 1017.8 - 0.0 - - - - - - -
21/07:00am 19.0 CALM 0 0 1017.7 - 0.0 - - - - - - -
21/06:30am 17.6 CALM 0 0 1017.4 - 0.0 - - - - - - -
21/06:00am 16.1 CALM 0 0 1017.1 - 0.0 - - - - - - -
21/05:30am 15.9 CALM 0 0 1016.6 - 0.0 - - - - - - -
21/05:00am 16.5 CALM 0 0 1016.5 - 0.0 - Partly cloudy - - - - -
21/04:30am 17.1 CALM 0 0 1016.5 - 0.0 - Partly cloudy - - - - -
21/04:00am 17.2 CALM 0 0 1016.5 - 0.0 - Partly cloudy - - - - -
21/03:30am 17.9 CALM 0 0 1016.6 - 0.0 - Partly cloudy - - - - -
21/03:00am 18.0 CALM 0 0 1016.8 - 0.0 - Mostly cloudy - - - - -
21/02:30am 18.3 CALM 0 0 1017.0 - 0.0 - Cloudy - - - - -
21/02:00am 18.0 CALM 0 0 1017.4 - 0.0 - Partly cloudy - - - - -
21/01:30am 18.8 CALM 0 0 1017.7 - 0.0 - Partly cloudy - - - - -
21/01:00am 19.8 CALM 0 0 1017.9 - 0.0 - Cloudy - - - - -
21/12:30am 20.0 CALM 0 0 1018.1 - 0.0 - Partly cloudy - - - - -
21/12:00am 20.4 CALM 0 0 1018.4 - 0.0 - Cloudy - - - - -
 
Date/Time
EDT
Temp

°C
Wind Pressure Rain
since 9am
mm
Weather Cloud Vis
km
Sea
Height
m
Swell
Dir
 
Speed
knots
Gust
knots
hPa Trend Height
m
Period
s
Dir
20/11:30pm 20.4 CALM 0 0 1018.6 - 0.0 - Cloudy - - - - -
20/11:00pm 20.8 CALM 0 0 1018.7 - 0.0 - Cloudy - - - - -
20/10:30pm 20.7 NNE 1 4 1018.7 - 0.0 - Cloudy - - - - -
20/10:00pm 21.0 NE 2 4 1018.7 - 0.0 - Cloudy - - - - -
20/09:30pm 21.2 NE 3 4 1018.5 - 0.0 - Cloudy - - - - -
20/09:00pm 21.3 E 5 6 1018.2 - 0.0 - Cloudy - - - - -
20/08:30pm 21.5 E 5 7 1017.8 - 0.0 - Cloudy - - - - -
20/08:00pm 21.5 ESE 5 7 1017.3 - 0.0 - Cloudy - - - - -
20/07:30pm 21.7 ESE 5 7 1017.1 - 0.0 - Cloudy - - - - -
20/07:00pm 21.9 ESE 6 9 1016.5 - 0.0 - Cloudy - - - - -
20/06:30pm 22.0 E 7 10 1016.0 - 0.0 - Cloudy - - - - -
20/06:00pm 22.2 ESE 7 10 1015.4 - 0.0 - Cloudy - - - - -
20/05:30pm 22.3 ESE 7 9 1015.2 - 0.0 - Cloudy - - - - -
20/05:00pm 22.7 E 9 11 1015.1 - 0.0 - Partly cloudy - - - - -
20/04:30pm 22.9 ESE 9 14 1015.1 - 0.0 - Partly cloudy - - - - -
20/04:00pm 23.1 E 10 14 1015.3 - 0.0 - Cloudy - - - - -
20/03:30pm 23.3 SE 10 16 1015.6 - 0.0 - Cloudy - - - - -
20/03:00pm 23.4 SE 12 18 1015.8 - 0.0 - Partly cloudy - - - - -
20/02:30pm 23.5 ESE 12 16 1016.0 - 0.0 - Partly cloudy - - - - -
20/02:00pm 24.3 SE 12 17 1016.1 - 0.0 - Partly cloudy - - - - -
20/01:30pm 24.1 ESE 9 15 1016.5 - 0.0 - Partly cloudy - - - - -
20/01:00pm 22.9 ESE 9 15 1017.0 - 0.0 - Partly cloudy - - - - -
20/12:30pm 23.8 SE 9 13 1017.3 - 0.0 - Partly cloudy - - - - -
20/12:00pm 22.9 ESE 7 12 1017.7 - 0.0 - Cloudy - - - - -
20/11:30am 22.7 SE 6 9 1017.8 - 0.0 - Partly cloudy - - - - -
20/11:00am 22.9 SE 6 11 1017.8 - 0.0 - Partly cloudy - - - - -
20/10:30am 22.2 SE 6 10 1017.9 - 0.0 - Cloudy - - - - -
20/10:00am 21.8 S 5 7 1017.8 - 0.0 - Cloudy - - - - -
20/09:30am 21.8 SSW 5 9 1017.7 - 0.0 - Cloudy - - - - -
20/09:00am 21.4 SSW 6 9 1017.6 - 0.0 - Mostly cloudy - - - - -
20/08:30am 21.1 SW 6 8 1017.5 - 0.0 - Partly cloudy - - - - -
20/08:00am 20.6 WSW 5 8 1017.4 - 0.0 - Partly cloudy - - - - -
20/07:30am 19.9 W 5 6 1017.1 - 0.0 - Partly cloudy - - - - -
20/07:00am 19.0 NW 6 7 1016.6 - 0.0 - Partly cloudy - - - - -
20/06:30am 18.7 NW 5 6 1016.4 - 0.0 - Partly cloudy - - - - -
20/06:00am 18.4 NW 6 7 1016.2 - 0.0 - Cloudy - - - - -
20/05:30am 18.7 WNW 3 5 1015.9 - 0.0 - Partly cloudy - - - - -
20/05:00am 19.0 CALM 0 0 1015.8 - 0.0 - Cloudy - - - - -
20/04:30am 19.1 SW 2 4 1015.8 - 0.0 - Cloudy - - - - -
20/04:00am 19.3 SSW 5 8 1015.6 - 0.0 - Partly cloudy - - - - -
20/03:30am 19.5 WSW 6 8 1015.7 - 0.0 - Cloudy - - - - -
20/03:00am 19.6 SW 7 8 1015.9 - 0.0 - Mostly cloudy - - - - -
20/02:30am 19.7 SW 6 8 1016.0 - 0.0 - Cloudy - - - - -
20/02:00am 19.9 SW 6 8 1016.1 - 0.0 - Cloudy - - - - -
20/01:30am 20.0 W 5 6 1016.4 - 0.0 - Cloudy - - - - -
20/01:00am 19.9 WSW 5 7 1016.5 - 0.0 - Partly cloudy - - - - -
20/12:30am 20.1 SW 6 7 1016.8 - 0.0 - Cloudy - - - - -
20/12:00am 20.1 SW 7 9 1016.9 - 0.0 - Cloudy - - - - -
 
Date/Time
EDT
Temp

°C
Wind Pressure Rain
since 9am
mm
Weather Cloud Vis
km
Sea
Height
m
Swell
Dir
 
Speed
knots
Gust
knots
hPa Trend Height
m
Period
s
Dir
19/11:30pm 20.2 SW 6 8 1017.0 - 0.0 - Cloudy - - - - -
19/11:00pm 20.2 SW 7 9 1017.0 - 0.0 - Cloudy - - - - -
19/10:30pm 20.5 SW 7 9 1017.0 - 0.0 - Cloudy - - - - -
19/10:00pm 20.7 SW 7 9 1016.6 - 0.0 - Cloudy - - - - -
19/09:30pm 20.8 SSW 6 8 1016.1 - 0.0 - Partly cloudy - - - - -
19/09:00pm 20.9 SSW 6 9 1015.7 - 0.0 - Cloudy - - - - -
19/08:30pm 20.9 S 7 9 1015.2 - 0.0 - Cloudy - - - - -
19/08:00pm 21.1 S 9 12 1014.6 - 0.0 - Cloudy - - - - -
19/07:30pm 21.3 SSE 9 13 1014.0 - 0.0 - Cloudy - - - - -
19/07:00pm 21.4 SSE 9 15 1013.5 - 0.0 - Cloudy - - - - -
19/06:30pm 21.6 SSE 12 16 1012.7 - 0.0 - Partly cloudy - - - - -
19/06:00pm 22.2 SE 11 15 1012.2 - 0.0 - Cloudy - - - - -
19/05:30pm 23.2 SE 11 16 1011.9 - 0.0 - Partly cloudy - - - - -
19/05:00pm 22.5 SSE 14 19 1011.5 - 0.0 - Partly cloudy - - - - -
19/04:30pm 22.4 SSE 15 20 1011.3 - 0.0 - Partly cloudy - - - - -
19/04:00pm 22.8 SE 15 20 1011.2 - 0.0 - Partly cloudy - - - - -
19/03:30pm 23.9 SSE 17 22 1010.9 - 0.0 - - - - - - -
19/03:00pm 23.6 SSE 16 22 1011.0 - 0.0 - - - - - - -
19/02:30pm 24.2 SE 16 23 1010.9 - 0.0 - - - - - - -
19/02:00pm 23.6 SE 17 22 1011.4 - 0.0 - Partly cloudy - - - - -
19/01:33pm 24.0 SSE 15 26 1011.5 - 0.0 - Partly cloudy - - - - -
19/01:30pm 24.1 SSE 16 22 1011.5 - 0.0 - Partly cloudy - - - - -
19/01:00pm 23.1 SSE 17 23 1011.5 - 0.0 - Partly cloudy - - - - -
19/12:30pm 24.1 SSE 14 17 1011.6 - 0.0 - Partly cloudy - - - - -
19/12:00pm 24.6 SSE 13 19 1011.5 - 0.0 - Mostly clear - - - - -
19/11:30am 24.0 SSE 14 20 1011.5 - 0.0 - Partly cloudy - - - - -
19/11:00am 24.1 S 13 18 1011.4 - 0.0 - Partly cloudy - - - - -
19/10:30am 24.9 S 14 19 1011.3 - 0.0 - Partly cloudy - - - - -
19/10:00am 23.7 S 15 20 1011.1 - 0.0 - Partly cloudy - - - - -
19/09:30am 23.6 S 14 21 1011.0 - 0.0 - Partly cloudy - - - - -
19/09:00am 24.2 SSW 13 17 1010.5 - 0.4 - - - - - - -
19/08:30am 24.5 SSW 13 20 1009.9 - 0.4 - - - - - - -
19/08:00am 24.1 SW 9 15 1009.2 - 0.4 - - - - - - -
19/07:30am 22.4 W 5 8 1008.4 - 0.4 - - - - - - -
19/07:00am 20.2 WNW 5 8 1007.9 - 0.4 - - - - - - -
19/06:30am 19.4 WNW 5 6 1007.5 - 0.4 - - - - - - -
19/06:00am 15.3 NNW 4 5 1007.2 - 0.4 - - - - - - -
19/05:30am 18.5 WNW 4 6 1006.8 - 0.4 - - - - - - -
19/05:00am 19.3 W 7 8 1006.4 - 0.4 - - - - - - -
19/04:30am 19.9 W 8 10 1006.3 - 0.4 - - - - - - -
19/04:00am 19.6 WSW 5 6 1006.0 - 0.4 - - - - - - -
19/03:30am 19.8 W 6 8 1005.9 - 0.4 - - - - - - -
19/03:00am 19.6 W 5 7 1006.0 - 0.4 - - - - - - -
19/02:30am 19.4 WNW 5 6 1005.9 - 0.4 - - - - - - -
19/02:00am 19.6 WNW 5 5 1006.1 - 0.4 - - - - - - -
19/01:30am 20.1 WNW 4 5 1006.0 - 0.4 - - - - - - -
19/01:00am 20.8 W 5 7 1006.2 - 0.4 - - - - - - -
19/12:30am 21.4 WSW 6 8 1006.3 - 0.4 - - - - - - -
19/12:00am 21.6 W 5 6 1006.3 - 0.4 - - - - - - -
 
Date/Time
EDT
Temp

°C
Wind Pressure Rain
since 9am
mm
Weather Cloud Vis
km
Sea
Height
m
Swell
Dir
 
Speed
knots
Gust
knots
hPa Trend Height
m
Period
s
Dir
18/11:30pm 22.0 W 4 6 1006.5 - 0.4 - - - - - - -
18/11:00pm 22.3 W 5 6 1006.5 - 0.4 - - - - - - -
18/10:30pm 22.6 W 5 6 1006.4 - 0.4 - - - - - - -
18/10:00pm 22.8 W 5 6 1006.4 - 0.4 - - - - - - -
18/09:30pm 23.0 NW 3 6 1006.5 - 0.4 - - - - - - -
18/09:00pm 23.2 WSW 5 6 1006.8 - 0.4 - Cloudy - - - - -
18/08:30pm 23.1 CALM 0 0 1006.2 - 0.4 - - - - - - -
18/08:00pm 23.2 CALM 0 0 1005.7 - 0.4 - - - - - - -
18/07:30pm 23.2 CALM 0 4 1005.5 - 0.4 - - - - - - -
18/07:00pm 23.4 CALM 0 3 1005.6 - 0.4 - Partly cloudy - - - - -
18/06:30pm 23.4 NNE 5 7 1005.3 - 0.2 - Partly cloudy - - - - -
18/06:00pm 23.5 ENE 5 7 1005.3 - 0.2 - Mostly clear - - - - -
18/05:30pm 23.6 SE 6 8 1004.8 - 0.2 - Partly cloudy - - - - -
18/05:00pm 23.3 E 7 9 1005.4 - 0.2 - Partly cloudy - - - - -
18/04:30pm 23.7 NE 6 10 1005.3 - 0.0 - Partly cloudy - - - - -
18/04:00pm 23.9 ENE 11 15 1003.5 - 0.0 - Partly cloudy - - - - -
18/03:30pm 24.6 ESE 9 12 1004.5 - 0.0 - Partly cloudy - - - - -
18/03:00pm 25.2 ENE 9 14 1004.9 - 0.0 - Cloudy - - - - -
18/02:30pm 25.8 E 10 14 1004.8 - 0.0 - Partly cloudy - - - - -
18/02:00pm 25.6 ENE 14 19 1005.0 - 0.0 - Partly cloudy - - - - -
18/01:30pm 25.9 ENE 14 19 1005.6 - 0.0 - Partly cloudy - - - - -
18/01:00pm 26.0 ENE 14 20 1005.7 - 0.0 - Partly cloudy - - - - -
18/12:30pm 26.6 ENE 13 19 1006.3 - 0.0 - Partly cloudy - - - - -
18/12:00pm 25.9 ENE 13 17 1006.8 - 0.0 - - - - - - -
18/11:30am 25.2 E 10 14 1007.0 - 0.0 - - - - - - -
18/11:00am 26.0 ENE 9 12 1007.2 - 0.0 - - - - - - -
18/10:30am 25.7 ENE 7 11 1007.6 - 0.0 - Partly cloudy - - - - -
18/10:00am 25.7 NE 8 11 1007.5 - 0.0 - Partly cloudy - - - - -
18/09:30am 24.9 ENE 9 14 1008.0 - 0.0 - Partly cloudy - - - - -
18/09:00am 24.6 NE 8 11 1008.3 - 0.0 - Cloudy - - - - -
18/08:30am 23.9 NNE 6 8 1008.7 - 0.0 - Partly cloudy - - - - -
18/08:00am 22.5 NE 5 8 1009.3 - 0.0 - Cloudy - - - - -

Other Formats:

Comma delimited format used in spreadsheet applications
http://www.bom.gov.au/fwo/IDN60701/IDN60701.95784.axf

JavaScript Object Notation format (JSON) in row-major order
http://www.bom.gov.au/fwo/IDN60701/IDN60701.95784.json